Time;durP1;ratioP1;P1;durP2;ratioP2;P2;SDS_P1;SDS_P2;PMS_P1;PMS_P2;Temp;Humidity;BMP_temperature;BMP_pressure;BME280_temperature;BME280_humidity;BME280_pressure;Samples;Min_cycle;Max_cycle;Signal;HPM_P1;HPM_P2
2023/03/19 00:01:40;;;;;;;;;;;;;;;7.59;88.28;101309.78;5016191;28;20403;-78
2023/03/19 00:04:05;;;;;;;;;;;;;;;7.50;88.30;101311.16;5026831;28;19973;-78
2023/03/19 00:06:31;;;;;;;;;;;;;;;7.44;88.43;101322.75;5034271;28;19975;-78
2023/03/19 00:08:57;;;;;;;;;;;;;;;7.42;88.54;101324.84;5029776;28;19975;-77
2023/03/19 00:11:22;;;;;;;;;;;;;;;7.42;88.97;101304.34;5026835;28;20408;-77
2023/03/19 00:13:48;;;;;;;;;;;;;;;7.49;89.27;101322.88;5028074;28;19954;-77
2023/03/19 00:16:13;;;;;;;;;;;;;;;7.49;88.84;101314.88;5014301;28;19941;-79
2023/03/19 00:18:38;;;;;;;;;;;;;;;7.51;88.56;101312.78;5044768;28;20216;-78
2023/03/19 00:21:04;;;;;;;;;;;;;;;7.57;88.31;101325.16;4997160;28;19937;-79
2023/03/19 00:23:30;;;;;;;;;;;;;;;7.63;88.48;101321.56;5009887;28;20007;-79
2023/03/19 00:25:56;;;;;;;;;;;;;;;7.80;88.25;101327.78;5027384;28;20525;-77
2023/03/19 00:28:21;;;;;;;;;;;;;;;7.81;88.14;101323.25;5032901;28;20021;-78
2023/03/19 00:30:47;;;;;;;;;;;;;;;8.01;87.38;101328.19;5027143;28;19939;-77
2023/03/19 00:33:13;;;;;;;;;;;;;;;8.05;87.59;101332.78;5026897;28;19959;-77
2023/03/19 00:35:39;;;;;;;;;;;;;;;8.05;87.53;101329.31;4996303;28;19947;-78
2023/03/19 00:38:04;;;;;;;;;;;;;;;7.98;87.89;101324.13;5005912;28;19952;-78
2023/03/19 00:40:33;;;;;;;;;;;;;;;7.90;87.59;101327.97;5022126;28;19996;-76
2023/03/19 00:42:59;;;;;;;;;;;;;;;7.81;88.03;101337.41;5024672;28;19972;-75
2023/03/19 00:45:24;;;;;;;;;;;;;;;7.74;88.32;101327.91;5010567;28;19995;-76
2023/03/19 00:47:50;;;;;;;;;;;;;;;7.68;88.24;101329.66;5027226;28;19943;-77
2023/03/19 00:50:15;;;;;;;;;;;;;;;7.54;88.22;101338.97;5011705;28;19949;-78
2023/03/19 00:52:41;;;;;;;;;;;;;;;7.43;88.67;101337.94;5027741;28;19996;-75
2023/03/19 00:55:06;;;;;;;;;;;;;;;7.32;88.78;101341.44;5025375;28;20349;-76
2023/03/19 00:57:32;;;;;;;;;;;;;;;7.26;89.01;101337.84;5007482;28;19949;-75
2023/03/19 00:59:57;;;;;;;;;;;;;;;7.22;88.81;101351.84;5028446;28;19959;-77
2023/03/19 01:02:22;;;;;;;;;;;;;;;7.22;89.12;101347.34;4990380;28;19963;-77
2023/03/19 01:04:48;;;;;;;;;;;;;;;7.24;89.33;101334.59;5033785;28;19977;-77
2023/03/19 01:07:13;;;;;;;;;;;;;;;7.32;89.07;101344.09;5029992;28;19994;-77
2023/03/19 01:09:39;;;;;;;;;;;;;;;7.39;89.03;101342.13;5043374;28;20029;-76
2023/03/19 01:12:05;;;;;;;;;;;;;;;7.49;89.01;101346.84;5018247;28;20082;-76
2023/03/19 01:14:31;;;;;;;;;;;;;;;7.49;89.18;101342.34;5018164;28;19955;-76
2023/03/19 01:16:57;;;;;;;;;;;;;;;7.49;88.96;101346.84;5031496;28;19986;-77
2023/03/19 01:19:22;;;;;;;;;;;;;;;7.45;88.77;101340.34;5017152;28;20692;-77
2023/03/19 01:21:48;;;;;;;;;;;;;;;7.36;88.96;101343.38;5030057;28;19988;-76
2023/03/19 01:24:17;;;;;;;;;;;;;;;7.27;88.83;101339.47;5017698;28;19962;-77
2023/03/19 01:26:46;;;;;;;;;;;;;;;7.22;89.07;101341.19;5014109;28;19944;-76
2023/03/19 01:29:22;;;;;;;;;;;;;;;7.15;89.16;101329.84;5030426;28;19937;-76
2023/03/19 01:31:47;;;;;;;;;;;;;;;7.13;89.18;101347.94;5033636;28;19953;-76
2023/03/19 01:34:41;;;;;;;;;;;;;;;7.07;89.59;101334.50;5021517;28;19959;-77
2023/03/19 01:37:08;;;;;;;;;;;;;;;7.09;89.64;101337.72;5028344;28;20432;-77
2023/03/19 01:39:35;;;;;;;;;;;;;;;7.07;89.56;101336.34;5009938;28;19945;-77
2023/03/19 01:42:05;;;;;;;;;;;;;;;7.13;89.99;101332.75;5044060;28;19951;-77
2023/03/19 01:44:51;;;;;;;;;;;;;;;7.27;90.12;101326.16;5030193;28;20100;-76
2023/03/19 01:47:24;;;;;;;;;;;;;;;7.17;89.79;101331.22;5012370;28;20365;-76
2023/03/19 01:50:34;;;;;;;;;;;;;;;7.09;89.75;101332.41;5017176;28;19966;-77
2023/03/19 01:53:24;;;;;;;;;;;;;;;7.07;89.76;101333.69;5007714;28;20042;-76
2023/03/19 01:56:01;;;;;;;;;;;;;;;7.11;90.08;101324.16;5033167;28;19943;-76
2023/03/19 01:58:42;;;;;;;;;;;;;;;7.11;89.98;101334.81;5047532;28;19937;-76
2023/03/19 02:01:36;;;;;;;;;;;;;;;7.10;89.97;101322.56;5041048;28;19939;-76
2023/03/19 02:04:02;;;;;;;;;;;;;;;7.05;90.26;101322.47;5030609;28;19968;-76
2023/03/19 02:06:30;;;;;;;;;;;;;;;6.99;89.82;101320.72;5040096;28;19943;-76
2023/03/19 02:08:57;;;;;;;;;;;;;;;6.91;89.99;101329.03;5046812;28;19955;-76
2023/03/19 02:11:24;;;;;;;;;;;;;;;6.99;90.43;101326.03;5015234;28;19942;-76
2023/03/19 02:13:51;;;;;;;;;;;;;;;7.12;90.12;101320.50;5016536;28;19961;-77
2023/03/19 02:16:17;;;;;;;;;;;;;;;7.21;89.47;101329.72;5032782;28;20419;-78
2023/03/19 02:18:43;;;;;;;;;;;;;;;7.29;89.73;101331.22;5033228;28;19937;-75
2023/03/19 02:21:10;;;;;;;;;;;;;;;7.43;90.11;101332.59;5036370;28;19941;-76
2023/03/19 02:23:54;;;;;;;;;;;;;;;7.32;90.24;101323.59;5020138;28;19964;-77
2023/03/19 02:26:33;;;;;;;;;;;;;;;7.29;89.70;101328.56;5033045;28;19997;-77
2023/03/19 02:29:02;;;;;;;;;;;;;;;7.30;90.51;101320.34;5028965;28;20033;-77
2023/03/19 02:31:31;;;;;;;;;;;;;;;7.31;90.79;101318.47;5022006;28;20001;-78
2023/03/19 02:33:59;;;;;;;;;;;;;;;7.37;91.25;101323.69;5014106;28;20047;-75
2023/03/19 02:36:26;;;;;;;;;;;;;;;7.27;90.36;101323.47;5031419;28;19946;-74
2023/03/19 02:38:56;;;;;;;;;;;;;;;7.15;90.83;101322.66;4996770;28;19949;-76
2023/03/19 02:41:21;;;;;;;;;;;;;;;7.00;90.09;101330.31;5024923;28;20031;-77
2023/03/19 02:43:48;;;;;;;;;;;;;;;6.87;90.02;101322.56;5028221;28;20417;-74
2023/03/19 02:46:16;;;;;;;;;;;;;;;6.78;90.20;101325.56;5011248;28;19949;-76
2023/03/19 02:48:42;;;;;;;;;;;;;;;6.76;90.33;101332.13;5028906;28;19944;-76
2023/03/19 02:51:08;;;;;;;;;;;;;;;6.74;90.73;101328.91;5029095;28;19950;-77
2023/03/19 02:53:34;;;;;;;;;;;;;;;6.71;90.71;101330.19;5008629;28;20427;-76
2023/03/19 02:55:59;;;;;;;;;;;;;;;6.68;90.74;101322.66;5013700;28;19957;-77
2023/03/19 02:58:25;;;;;;;;;;;;;;;6.65;90.93;101325.78;5012449;28;20381;-76
2023/03/19 03:00:51;;;;;;;;;;;;;;;6.56;90.43;101332.44;5042374;28;19941;-76
2023/03/19 03:03:16;;;;;;;;;;;;;;;6.47;90.24;101331.16;5032466;28;20056;-77
2023/03/19 03:05:42;;;;;;;;;;;;;;;6.42;90.66;101325.72;5030408;28;20013;-78
2023/03/19 03:08:08;;;;;;;;;;;;;;;6.40;90.91;101327.78;5028364;28;20821;-76
2023/03/19 03:10:33;;;;;;;;;;;;;;;6.50;91.84;101328.88;5049979;28;20046;-75
2023/03/19 03:13:04;;;;;;;;;;;;;;;6.39;91.34;101329.66;5031597;28;20036;-76
2023/03/19 03:15:30;;;;;;;;;;;;;;;6.37;91.21;101328.22;5012154;28;19967;-77
2023/03/19 03:17:55;;;;;;;;;;;;;;;6.26;91.21;101337.81;5013616;28;20310;-77
2023/03/19 03:20:21;;;;;;;;;;;;;;;6.21;90.89;101337.69;5025438;28;19999;-77
2023/03/19 03:22:47;;;;;;;;;;;;;;;6.26;91.09;101332.50;5009589;28;20623;-76
2023/03/19 03:25:13;;;;;;;;;;;;;;;6.17;91.15;101334.69;5029941;28;20034;-76
2023/03/19 03:27:40;;;;;;;;;;;;;;;6.20;91.44;101346.69;4995800;28;20018;-78
2023/03/19 03:30:07;;;;;;;;;;;;;;;6.13;91.03;101328.16;5026157;28;19945;-78
2023/03/19 03:32:34;;;;;;;;;;;;;;;6.10;91.09;101341.13;5011143;28;19989;-77
2023/03/19 03:35:00;;;;;;;;;;;;;;;6.14;91.69;101329.78;5028837;28;19964;-76
2023/03/19 03:37:25;;;;;;;;;;;;;;;6.14;91.72;101345.75;5002686;28;20479;-76
2023/03/19 03:39:52;;;;;;;;;;;;;;;6.14;91.90;101331.63;5023037;28;19942;-76
2023/03/19 03:42:17;;;;;;;;;;;;;;;6.23;92.21;101339.09;5005915;28;20242;-77
2023/03/19 03:44:43;;;;;;;;;;;;;;;6.20;91.89;101341.38;5010336;28;19959;-76
2023/03/19 03:47:08;;;;;;;;;;;;;;;6.09;91.62;101332.31;5013783;28;20462;-76
2023/03/19 03:49:34;;;;;;;;;;;;;;;6.08;92.18;101340.50;5030576;28;20414;-76
2023/03/19 03:52:00;;;;;;;;;;;;;;;6.04;92.21;101340.16;5009059;28;20391;-76
2023/03/19 03:54:25;;;;;;;;;;;;;;;5.95;91.59;101336.97;5001932;28;20027;-75
2023/03/19 03:56:51;;;;;;;;;;;;;;;5.88;91.71;101330.91;5032228;28;19961;-76
2023/03/19 03:59:16;;;;;;;;;;;;;;;5.95;92.12;101328.19;5010217;28;19945;-77
2023/03/19 04:01:42;;;;;;;;;;;;;;;6.12;92.83;101329.22;5012703;28;19940;-76
2023/03/19 04:04:07;;;;;;;;;;;;;;;6.19;93.05;101329.94;5010693;28;20495;-78
2023/03/19 04:06:33;;;;;;;;;;;;;;;6.09;93.03;101323.50;5015171;28;20322;-79
2023/03/19 04:09:18;;;;;;;;;;;;;;;6.02;92.61;101326.25;5032454;28;19952;-79
2023/03/19 04:11:44;;;;;;;;;;;;;;;6.05;92.59;101328.50;5011289;28;19948;-79
2023/03/19 04:14:10;;;;;;;;;;;;;;;6.02;92.78;101329.72;5026953;28;19963;-78
2023/03/19 04:16:38;;;;;;;;;;;;;;;6.02;92.75;101327.06;5026174;28;19949;-78
2023/03/19 04:19:03;;;;;;;;;;;;;;;6.02;92.66;101331.59;5040403;28;19947;-79
2023/03/19 04:21:29;;;;;;;;;;;;;;;6.16;93.39;101332.22;5027681;28;19949;-78
2023/03/19 04:23:55;;;;;;;;;;;;;;;6.08;93.20;101341.31;5028236;28;20404;-76
2023/03/19 04:26:21;;;;;;;;;;;;;;;6.06;92.66;101334.63;5014672;28;19946;-80
2023/03/19 04:28:46;;;;;;;;;;;;;;;6.05;92.82;101340.97;5031136;28;20050;-78
2023/03/19 04:31:11;;;;;;;;;;;;;;;6.00;92.54;101329.16;5009653;28;19939;-78
2023/03/19 04:33:42;;;;;;;;;;;;;;;5.96;92.94;101332.47;5011028;28;19963;-78
2023/03/19 04:36:07;;;;;;;;;;;;;;;5.99;92.84;101340.03;5008465;28;20332;-78
2023/03/19 04:38:34;;;;;;;;;;;;;;;5.95;92.70;101346.81;5027934;28;20369;-79
2023/03/19 04:41:00;;;;;;;;;;;;;;;5.92;92.90;101347.28;5033718;28;20041;-79
2023/03/19 04:43:26;;;;;;;;;;;;;;;5.96;93.07;101348.44;5019508;28;20383;-78
2023/03/19 04:45:53;;;;;;;;;;;;;;;5.93;93.06;101339.06;5015697;28;19937;-79
2023/03/19 04:48:20;;;;;;;;;;;;;;;5.92;92.77;101341.97;5014467;28;19963;-79
2023/03/19 04:50:51;;;;;;;;;;;;;;;5.94;93.03;101339.88;5035450;28;20430;-78
2023/03/19 04:53:19;;;;;;;;;;;;;;;6.02;93.10;101336.91;5019381;28;20489;-79
2023/03/19 04:55:46;;;;;;;;;;;;;;;6.10;93.45;101344.59;5032454;28;20303;-78
2023/03/19 04:58:20;;;;;;;;;;;;;;;6.16;92.99;101342.84;5022153;28;20427;-78
2023/03/19 05:00:54;;;;;;;;;;;;;;;6.12;93.00;101347.03;5036684;28;20079;-78
2023/03/19 05:03:26;;;;;;;;;;;;;;;6.15;92.69;101351.88;4999328;28;19960;-78
2023/03/19 05:05:54;;;;;;;;;;;;;;;6.16;93.24;101335.69;5014534;28;20040;-78
2023/03/19 05:08:20;;;;;;;;;;;;;;;6.20;92.88;101341.38;5014652;28;19995;-79
2023/03/19 05:10:46;;;;;;;;;;;;;;;6.25;93.13;101338.84;5020981;28;19938;-79
2023/03/19 05:13:11;;;;;;;;;;;;;;;6.22;92.88;101336.63;5001240;28;19970;-78
2023/03/19 05:15:42;;;;;;;;;;;;;;;6.27;93.17;101340.25;5015387;28;20000;-78
2023/03/19 05:18:09;;;;;;;;;;;;;;;6.33;93.25;101348.38;5028684;28;19943;-77
2023/03/19 05:20:37;;;;;;;;;;;;;;;6.38;93.24;101337.88;5018058;28;19966;-78
2023/03/19 05:23:06;;;;;;;;;;;;;;;6.41;93.33;101335.53;5030767;28;19992;-77
2023/03/19 05:25:40;;;;;;;;;;;;;;;6.44;93.46;101345.75;5015080;28;20013;-78
2023/03/19 05:28:08;;;;;;;;;;;;;;;6.45;93.05;101339.38;5045878;28;19946;-78
2023/03/19 05:30:34;;;;;;;;;;;;;;;6.45;93.17;101349.22;5017716;28;19964;-78
2023/03/19 05:33:35;;;;;;;;;;;;;;;6.42;93.08;101347.00;5032650;28;20243;-79
2023/03/19 05:36:01;;;;;;;;;;;;;;;6.37;93.10;101344.19;5047233;28;20378;-77
2023/03/19 05:38:39;;;;;;;;;;;;;;;6.32;93.02;101352.06;5018447;28;19935;-78
2023/03/19 05:41:10;;;;;;;;;;;;;;;6.36;93.36;101342.56;5000542;28;19949;-78
2023/03/19 05:43:52;;;;;;;;;;;;;;;6.49;93.54;101342.38;5034476;28;19968;-77
2023/03/19 05:46:33;;;;;;;;;;;;;;;6.42;93.14;101344.34;5037057;28;19945;-78
2023/03/19 05:48:58;;;;;;;;;;;;;;;6.39;93.47;101337.63;5050599;28;19951;-78
2023/03/19 05:51:24;;;;;;;;;;;;;;;6.41;92.97;101346.19;5028874;28;19944;-78
2023/03/19 05:53:50;;;;;;;;;;;;;;;6.48;93.22;101346.09;5030366;28;19962;-78
2023/03/19 05:56:51;;;;;;;;;;;;;;;6.59;93.22;101350.63;5010402;28;20458;-78
2023/03/19 05:59:42;;;;;;;;;;;;;;;6.71;93.02;101340.84;5031887;28;19989;-78
2023/03/19 06:02:35;;;;;;;;;;;;;;;6.80;92.64;101354.63;5031032;28;19945;-78
2023/03/19 06:05:20;;;;;;;;;;;;;;;6.95;92.84;101346.19;5032142;28;19964;-78
2023/03/19 06:07:46;;;;;;;;;;;;;;;7.08;92.36;101351.28;5038895;28;19941;-78
2023/03/19 06:10:20;;;;;;;;;;;;;;;7.18;92.80;101366.66;5030965;28;20318;-78
2023/03/19 06:12:48;;;;;;;;;;;;;;;7.29;92.40;101366.69;4996512;28;19987;-77
2023/03/19 06:15:27;;;;;;;;;;;;;;;7.44;92.24;101352.06;5013220;28;19942;-77
2023/03/19 06:18:18;;;;;;;;;;;;;;;7.57;91.76;101351.81;5007728;28;20055;-79
2023/03/19 06:20:45;;;;;;;;;;;;;;;7.72;92.38;101362.78;5013678;28;19942;-79
2023/03/19 06:23:12;;;;;;;;;;;;;;;7.79;91.49;101363.50;5026602;28;20011;-79
2023/03/19 06:25:37;;;;;;;;;;;;;;;7.85;91.71;101351.88;5013713;28;20391;-79
2023/03/19 06:28:03;;;;;;;;;;;;;;;7.86;90.88;101364.19;5034876;28;19950;-78
2023/03/19 06:30:35;;;;;;;;;;;;;;;7.95;90.75;101361.94;5015620;28;19939;-78
2023/03/19 06:33:04;;;;;;;;;;;;;;;8.23;91.12;101363.00;5012709;28;20340;-78
2023/03/19 06:35:31;;;;;;;;;;;;;;;8.30;90.11;101359.13;5025114;28;20021;-77
2023/03/19 06:37:56;;;;;;;;;;;;;;;8.54;89.86;101370.56;5021100;28;19941;-78
2023/03/19 06:40:22;;;;;;;;;;;;;;;8.71;88.70;101363.34;5004262;28;19945;-78
2023/03/19 06:42:47;;;;;;;;;;;;;;;8.83;87.46;101371.28;5004310;28;19976;-78
2023/03/19 06:45:15;;;;;;;;;;;;;;;8.96;87.35;101373.66;5013167;28;19973;-78
2023/03/19 06:47:42;;;;;;;;;;;;;;;9.15;86.78;101374.22;5033905;28;19946;-78
2023/03/19 06:50:08;;;;;;;;;;;;;;;9.42;85.60;101386.91;5033606;28;19941;-78
2023/03/19 06:52:34;;;;;;;;;;;;;;;9.58;85.05;101386.03;5031232;28;19943;-79
2023/03/19 06:54:59;;;;;;;;;;;;;;;9.68;83.60;101380.00;5038449;28;19967;-78
2023/03/19 06:57:25;;;;;;;;;;;;;;;9.85;83.33;101380.78;5017400;28;19982;-78
2023/03/19 06:59:51;;;;;;;;;;;;;;;10.13;82.02;101383.25;5012808;28;20005;-78
2023/03/19 07:02:17;;;;;;;;;;;;;;;10.39;81.42;101378.19;5044633;28;20377;-78
2023/03/19 07:04:42;;;;;;;;;;;;;;;10.57;80.83;101380.53;5032161;28;19958;-78
2023/03/19 07:07:08;;;;;;;;;;;;;;;10.71;80.65;101388.94;5036230;28;20033;-78
2023/03/19 07:09:33;;;;;;;;;;;;;;;10.76;80.48;101390.84;5012713;28;19998;-79
2023/03/19 07:11:59;;;;;;;;;;;;;;;10.88;79.38;101396.84;5027109;28;20001;-79
2023/03/19 07:14:24;;;;;;;;;;;;;;;10.82;78.66;101384.47;5033774;28;20496;-78
2023/03/19 07:16:50;;;;;;;;;;;;;;;10.85;78.61;101390.13;5027613;28;20000;-78
2023/03/19 07:19:15;;;;;;;;;;;;;;;10.90;78.16;101392.03;5029660;28;19945;-78
2023/03/19 07:21:41;;;;;;;;;;;;;;;10.93;78.26;101391.53;5013832;28;19953;-77
2023/03/19 07:24:07;;;;;;;;;;;;;;;11.19;77.48;101396.03;5029601;28;19963;-78
2023/03/19 07:26:32;;;;;;;;;;;;;;;11.13;77.44;101394.38;5020229;28;19949;-79
2023/03/19 07:28:58;;;;;;;;;;;;;;;11.23;76.86;101395.50;5006035;28;20403;-78
2023/03/19 07:31:24;;;;;;;;;;;;;;;11.43;76.58;101404.47;5003126;28;19935;-78
2023/03/19 07:33:53;;;;;;;;;;;;;;;11.67;75.57;101394.16;4999635;28;19962;-78
2023/03/19 07:36:18;;;;;;;;;;;;;;;11.96;75.99;101385.72;5014647;28;19940;-80
2023/03/19 07:38:47;;;;;;;;;;;;;;;12.29;72.84;101392.56;5013124;28;19935;-80
2023/03/19 07:41:12;;;;;;;;;;;;;;;12.21;73.24;101399.25;5043207;28;19944;-77
2023/03/19 07:43:38;;;;;;;;;;;;;;;12.00;73.86;101397.56;5039030;28;20331;-77
2023/03/19 07:46:06;;;;;;;;;;;;;;;12.34;73.42;101410.56;5028924;28;20048;-77
2023/03/19 07:48:32;;;;;;;;;;;;;;;12.09;73.89;101404.03;5011578;28;19947;-76
2023/03/19 07:50:57;;;;;;;;;;;;;;;12.21;73.51;101407.31;5017632;28;19941;-76
2023/03/19 07:53:23;;;;;;;;;;;;;;;12.17;73.67;101410.78;5013551;28;19960;-78
2023/03/19 07:55:49;;;;;;;;;;;;;;;12.11;73.76;101415.31;5014524;28;20394;-76
2023/03/19 07:58:15;;;;;;;;;;;;;;;12.09;74.23;101417.47;5047602;28;19960;-76
2023/03/19 08:00:41;;;;;;;;;;;;;;;11.93;74.95;101427.34;5014389;28;19945;-76
2023/03/19 08:03:07;;;;;;;;;;;;;;;11.64;75.30;101413.47;5012355;28;19965;-76
2023/03/19 08:05:33;;;;;;;;;;;;;;;11.66;76.35;101410.53;5031707;28;20044;-77
2023/03/19 08:07:58;;;;;;;;;;;;;;;11.50;75.79;101401.56;5000066;28;19950;-76
2023/03/19 08:10:24;;;;;;;;;;;;;;;11.49;76.04;101416.06;5031528;28;19936;-77
2023/03/19 08:12:49;;;;;;;;;;;;;;;11.52;76.11;101415.56;5025881;28;19943;-75
2023/03/19 08:15:15;;;;;;;;;;;;;;;11.48;75.72;101409.09;5013491;28;19963;-76
2023/03/19 08:17:40;;;;;;;;;;;;;;;11.58;76.05;101414.50;5015193;28;20563;-76
2023/03/19 08:20:07;;;;;;;;;;;;;;;11.45;75.77;101423.03;5039823;28;19940;-76
2023/03/19 08:22:34;;;;;;;;;;;;;;;11.39;76.16;101414.13;5050190;28;19980;-77
2023/03/19 08:24:59;;;;;;;;;;;;;;;11.41;76.24;101413.88;5035150;28;19969;-77
2023/03/19 08:27:26;;;;;;;;;;;;;;;11.46;76.15;101411.22;5050433;28;19942;-77
2023/03/19 08:29:52;;;;;;;;;;;;;;;11.53;76.06;101422.53;5050736;28;19938;-77
2023/03/19 08:32:17;;;;;;;;;;;;;;;11.35;76.24;101421.06;5039678;28;19969;-77
2023/03/19 08:34:43;;;;;;;;;;;;;;;11.39;76.57;101422.19;5035483;28;20046;-76
2023/03/19 08:37:08;;;;;;;;;;;;;;;11.43;76.42;101434.00;5053950;28;19937;-77
2023/03/19 08:39:34;;;;;;;;;;;;;;;11.68;75.72;101436.03;5038031;28;19949;-76
2023/03/19 08:41:59;;;;;;;;;;;;;;;11.93;74.87;101431.91;5039034;28;19995;-75
2023/03/19 08:44:25;;;;;;;;;;;;;;;12.06;74.23;101436.78;5025663;28;20347;-77
2023/03/19 08:46:50;;;;;;;;;;;;;;;12.44;73.48;101437.44;5019495;28;19950;-77
2023/03/19 08:49:16;;;;;;;;;;;;;;;12.59;72.55;101432.09;5024481;28;19939;-77
2023/03/19 08:51:41;;;;;;;;;;;;;;;12.77;71.72;101423.53;5032936;28;19951;-76
2023/03/19 08:54:08;;;;;;;;;;;;;;;12.67;71.97;101431.59;5033158;28;19966;-78
2023/03/19 08:56:33;;;;;;;;;;;;;;;13.01;72.65;101429.19;5050751;28;20419;-78
2023/03/19 08:58:59;;;;;;;;;;;;;;;13.28;70.33;101420.88;5031938;28;19950;-76
2023/03/19 09:01:25;;;;;;;;;;;;;;;13.57;69.51;101433.75;5037329;28;19994;-77
2023/03/19 09:03:50;;;;;;;;;;;;;;;13.64;69.42;101434.25;5034944;28;19971;-78
2023/03/19 09:06:16;;;;;;;;;;;;;;;14.24;67.46;101437.81;5031879;28;19956;-78
2023/03/19 09:08:41;;;;;;;;;;;;;;;14.44;65.22;101431.53;5016177;28;19945;-78
2023/03/19 09:11:07;;;;;;;;;;;;;;;14.19;66.36;101429.75;5031779;28;20409;-78
2023/03/19 09:13:33;;;;;;;;;;;;;;;14.03;65.64;101430.91;5020315;28;19992;-77
2023/03/19 09:15:58;;;;;;;;;;;;;;;13.82;67.12;101431.00;5031669;28;20048;-78
2023/03/19 09:18:24;;;;;;;;;;;;;;;13.98;66.58;101433.63;5036322;28;19982;-76
2023/03/19 09:20:50;;;;;;;;;;;;;;;13.98;66.82;101433.63;5018235;28;20041;-77
2023/03/19 09:23:15;;;;;;;;;;;;;;;14.25;66.52;101427.84;5038019;28;19972;-76
2023/03/19 09:25:41;;;;;;;;;;;;;;;14.37;66.71;101434.53;5033213;28;19949;-78
2023/03/19 09:28:06;;;;;;;;;;;;;;;14.10;66.17;101442.19;5048286;28;19976;-76
2023/03/19 09:30:32;;;;;;;;;;;;;;;14.41;64.77;101435.56;5032517;28;20320;-76
2023/03/19 09:32:58;;;;;;;;;;;;;;;14.25;65.48;101439.44;5030845;28;19942;-77
2023/03/19 09:35:23;;;;;;;;;;;;;;;14.33;65.19;101436.16;5011975;28;20408;-78
2023/03/19 09:37:49;;;;;;;;;;;;;;;14.45;65.86;101449.28;5034836;28;19996;-78
2023/03/19 09:40:19;;;;;;;;;;;;;;;15.02;64.10;101443.25;5013774;28;19955;-77
2023/03/19 09:42:44;;;;;;;;;;;;;;;14.98;63.09;101447.63;5037151;28;20094;-77
2023/03/19 09:45:12;;;;;;;;;;;;;;;14.84;64.70;101448.56;5021984;28;19968;-77
2023/03/19 09:47:38;;;;;;;;;;;;;;;14.73;63.50;101445.09;5015665;28;20352;-77
2023/03/19 09:50:15;;;;;;;;;;;;;;;14.65;63.45;101448.41;5030304;28;19987;-76
2023/03/19 09:52:42;;;;;;;;;;;;;;;14.69;63.25;101449.44;5029486;28;19951;-79
2023/03/19 09:55:19;;;;;;;;;;;;;;;14.72;63.65;101448.91;5033804;28;19966;-76
2023/03/19 09:57:46;;;;;;;;;;;;;;;14.95;63.05;101448.16;5031244;28;20047;-76
2023/03/19 10:00:23;;;;;;;;;;;;;;;15.12;61.63;101441.59;5032833;28;19947;-76
2023/03/19 10:03:11;;;;;;;;;;;;;;;15.35;61.22;101445.41;5031639;28;20506;-77
2023/03/19 10:05:36;;;;;;;;;;;;;;;15.65;58.85;101447.84;5027367;28;19955;-76
2023/03/19 10:08:21;;;;;;;;;;;;;;;16.13;55.99;101444.34;5011690;28;20027;-76
2023/03/19 10:10:56;;;;;;;;;;;;;;;15.88;57.01;101442.75;5028961;28;19984;-75
2023/03/19 10:13:22;;;;;;;;;;;;;;;16.20;57.15;101444.78;5028100;28;19958;-75
2023/03/19 10:15:49;;;;;;;;;;;;;;;16.04;56.57;101444.16;5033532;28;19942;-77
2023/03/19 10:18:14;;;;;;;;;;;;;;;15.82;58.23;101453.59;5029921;28;20444;-76
2023/03/19 10:20:50;;;;;;;;;;;;;;;15.56;56.92;101442.22;5025238;28;19944;-78
2023/03/19 10:23:25;;;;;;;;;;;;;;;15.59;55.32;101445.47;5030263;28;19972;-77
2023/03/19 10:25:53;;;;;;;;;;;;;;;15.66;55.14;101440.56;5031480;28;19946;-78
2023/03/19 10:28:18;;;;;;;;;;;;;;;15.50;55.94;101439.88;5030693;28;19997;-76
2023/03/19 10:30:50;;;;;;;;;;;;;;;15.77;55.10;101445.53;5028248;28;19935;-77
2023/03/19 10:33:25;;;;;;;;;;;;;;;16.20;54.88;101433.97;5032931;28;20040;-76
2023/03/19 10:35:58;;;;;;;;;;;;;;;15.83;54.33;101438.19;5029037;28;19991;-77
2023/03/19 10:38:26;;;;;;;;;;;;;;;15.72;54.68;101442.13;5043161;28;20421;-76
2023/03/19 10:41:10;;;;;;;;;;;;;;;15.57;55.82;101443.84;5005787;28;19940;-76
2023/03/19 10:43:36;;;;;;;;;;;;;;;15.42;56.90;101433.19;5030959;28;19969;-75
2023/03/19 10:46:01;;;;;;;;;;;;;;;15.35;56.48;101443.53;5017077;28;19946;-76
2023/03/19 10:48:28;;;;;;;;;;;;;;;15.32;56.64;101446.00;5031332;28;20730;-76
2023/03/19 10:50:58;;;;;;;;;;;;;;;15.42;57.17;101449.38;5035399;28;19948;-76
2023/03/19 10:53:32;;;;;;;;;;;;;;;15.66;56.50;101440.56;5012191;28;19990;-75
2023/03/19 10:56:05;;;;;;;;;;;;;;;15.69;55.54;101446.19;5028918;28;19942;-75
2023/03/19 10:58:31;;;;;;;;;;;;;;;16.09;54.92;101444.91;5015963;28;19956;-75
2023/03/19 11:01:02;;;;;;;;;;;;;;;16.34;55.25;101448.38;5025432;28;20000;-76
2023/03/19 11:03:29;;;;;;;;;;;;;;;16.49;53.81;101436.56;5045774;28;20411;-77
2023/03/19 11:06:20;;;;;;;;;;;;;;;16.38;53.55;101447.50;5027860;28;19979;-77
2023/03/19 11:08:54;;;;;;;;;;;;;;;16.55;53.36;101438.88;5044199;28;19944;-76
2023/03/19 11:11:24;;;;;;;;;;;;;;;16.94;52.93;101432.38;5027512;28;19948;-77
2023/03/19 11:13:49;;;;;;;;;;;;;;;17.01;51.19;101427.41;5028543;28;19970;-77
2023/03/19 11:16:15;;;;;;;;;;;;;;;16.80;51.15;101442.31;5045243;28;19947;-76
2023/03/19 11:18:42;;;;;;;;;;;;;;;16.91;51.52;101443.78;5028914;28;19977;-76
2023/03/19 11:21:20;;;;;;;;;;;;;;;16.94;50.92;101440.50;5028353;28;19937;-75
2023/03/19 11:23:50;;;;;;;;;;;;;;;16.64;52.13;101434.41;5027517;28;19966;-76
2023/03/19 11:26:18;;;;;;;;;;;;;;;16.53;51.27;101443.78;5045841;28;19942;-77
2023/03/19 11:28:49;;;;;;;;;;;;;;;16.28;51.82;101446.84;5028552;28;19957;-77
2023/03/19 11:31:18;;;;;;;;;;;;;;;16.20;52.19;101439.38;5025608;28;19950;-77
2023/03/19 11:34:13;;;;;;;;;;;;;;;16.49;51.08;101436.56;5029489;28;19955;-77
2023/03/19 11:36:46;;;;;;;;;;;;;;;16.53;51.35;101438.38;5016845;28;19935;-75
2023/03/19 11:39:29;;;;;;;;;;;;;;;16.94;50.00;101435.09;5013606;28;20424;-75
2023/03/19 11:41:55;;;;;;;;;;;;;;;17.13;50.37;101425.00;5028913;28;19943;-76
2023/03/19 11:44:33;;;;;;;;;;;;;;;17.33;50.10;101434.69;5027630;28;20437;-76
2023/03/19 11:47:06;;;;;;;;;;;;;;;16.70;49.43;101437.88;5018030;28;20052;-77
2023/03/19 11:49:44;;;;;;;;;;;;;;;16.48;50.98;101432.25;5027313;28;19957;-75
2023/03/19 11:52:21;;;;;;;;;;;;;;;16.34;51.31;101440.28;5028250;28;19934;-77
2023/03/19 11:55:07;;;;;;;;;;;;;;;16.15;51.43;101436.75;5040837;28;20043;-77
2023/03/19 11:57:54;;;;;;;;;;;;;;;16.01;52.63;101436.66;5026715;28;19967;-78
2023/03/19 12:00:30;;;;;;;;;;;;;;;15.74;54.19;101437.22;5044095;28;19958;-76
2023/03/19 12:02:55;;;;;;;;;;;;;;;15.89;54.45;101434.34;5025978;28;20011;-75
2023/03/19 12:05:31;;;;;;;;;;;;;;;15.83;54.71;101435.50;5030980;28;19962;-76
2023/03/19 12:08:12;;;;;;;;;;;;;;;15.97;55.33;101447.22;5026099;28;19980;-77
2023/03/19 12:10:50;;;;;;;;;;;;;;;15.99;55.33;101445.03;5026371;28;20327;-76
2023/03/19 12:13:23;;;;;;;;;;;;;;;15.95;55.12;101435.91;5027055;28;19946;-77
2023/03/19 12:16:05;;;;;;;;;;;;;;;15.68;56.33;101441.06;5043297;28;19938;-76
2023/03/19 12:18:30;;;;;;;;;;;;;;;15.55;56.17;101442.53;5033742;28;19987;-75
2023/03/19 12:20:56;;;;;;;;;;;;;;;15.57;56.81;101443.84;5029171;28;19993;-75
2023/03/19 12:23:31;;;;;;;;;;;;;;;15.38;57.55;101439.47;5028195;28;20039;-77
2023/03/19 12:26:07;;;;;;;;;;;;;;;15.46;56.94;101442.34;5044046;28;20429;-77
2023/03/19 12:28:35;;;;;;;;;;;;;;;15.55;56.80;101446.03;5045213;28;19948;-77
2023/03/19 12:31:10;;;;;;;;;;;;;;;15.65;56.79;101439.75;5031187;28;19951;-77
2023/03/19 12:33:42;;;;;;;;;;;;;;;15.94;56.66;101441.59;5027992;28;19963;-76
2023/03/19 12:36:11;;;;;;;;;;;;;;;15.87;55.95;101436.53;5040182;28;19950;-77
2023/03/19 12:38:38;;;;;;;;;;;;;;;15.92;56.44;101444.59;5025958;28;19959;-78
2023/03/19 12:41:06;;;;;;;;;;;;;;;16.36;55.79;101435.38;5028507;28;19954;-76
2023/03/19 12:43:35;;;;;;;;;;;;;;;16.60;55.18;101438.81;5026071;28;20381;-77
2023/03/19 12:46:06;;;;;;;;;;;;;;;16.61;55.52;101434.22;5030352;28;19955;-77
2023/03/19 12:48:37;;;;;;;;;;;;;;;16.91;54.99;101427.56;5003978;28;20338;-76
2023/03/19 12:51:07;;;;;;;;;;;;;;;16.79;55.39;101430.69;5026062;28;19956;-77
2023/03/19 12:53:48;;;;;;;;;;;;;;;16.80;55.23;101428.78;5030123;28;19959;-76